Pelham, NH

11:46 PM EST on November 22, 2014 (GMT -0500)
Boire | Change Station
CLOSE
Current Station
Airport
Location: Nashua,
Elevation: 200 ft
Nearby Weather Stations

Elev 200 ft 42.78 °N, 71.51 °W | Updated 55 minutes ago

Mostly Cloudy
Mostly Cloudy
40 °F
Feels Like 35 °F
N
7
Wind Variable Wind from Variable

Today
High -- | Low -- °F
--% Chance of Precip.
Yesterday
High -- | Low -- °F
Precip. -- in
6:45 AM 4:16 PM
New Moon, 1% visible
Pressure 30.81 in
Visibility 10.0 miles
Clouds Few 2700 ft
Scattered Clouds 8500 ft
Windchill 35 °F
Dew Point 17 °F
Humidity 40%
Rainfall 0.00 in
Snow Depth Not available.
UV 0 out of 12
Pollen .10 out of 12
Air Quality Not available.
Flu Activity Not available.
METAR KASH 230351Z AUTO VRB06KT 10SM FEW027 SCT085 04/M08 A3005 RMK AO2 T00441083 400501066 SLP431

More Conditions Fewer Conditions

Pressure 30.81 in
Visibility 10.0 miles
Clouds Few 2700 ft
Scattered Clouds 8500 ft
Windchill 35 °F
Dew Point 17 °F
Humidity 40%
Rainfall 0.00 in
Snow Depth Not available.
UV 0 out of 12
Pollen .10 out of 12
Air Quality Not available.
Flu Activity Not available.
METAR KASH 230351Z AUTO VRB06KT 10SM FEW027 SCT085 04/M08 A3005 RMK AO2 T00441083 400501066 SLP431

More Conditions Fewer Conditions

10-Day Weather Forecast

Almanac

Astronomy

Nov. 22, 2014 Rise Set
Actual Time
Civil Twilight
Nautical Twilight
Astronomical Twilight
Moon
Length of Visible Light
Length of Day
Tomorrow will be .
, % of the Moon is Illuminated

Today's Extremes

State Highs State Lows

Community

WunderPhotos

Upload Photos

1,773,003 photos uploaded!

WunderBlogs® & News

Nearby

Air Quality

  Air Quality AQ Index Pollutant
Not available.

Snow Depth

Station Depth Elevation

Earthquake Activity

City Distance Mag. Time & Date
Minimum magnitude displayed is 2.5.

Coastal Water Temperatures

Place Temperature

Nearby Weather Stations